sensor_id;sensor_type;location;lat;lon;timestamp;P1;durP1;ratioP1;P2;durP2;ratioP2
50781;SDS011;36749;37.428;-121.972;2023-02-12T00:01:20;6.07;;;1.17;;
50781;SDS011;36749;37.428;-121.972;2023-02-12T00:03:48;5.43;;;1.42;;
50781;SDS011;36749;37.428;-121.972;2023-02-12T00:06:14;4.90;;;1.40;;
50781;SDS011;36749;37.428;-121.972;2023-02-12T00:08:40;5.07;;;1.23;;
50781;SDS011;36749;37.428;-121.972;2023-02-12T00:11:14;3.28;;;1.05;;
50781;SDS011;36749;37.428;-121.972;2023-02-12T00:13:42;7.38;;;2.75;;
50781;SDS011;36749;37.428;-121.972;2023-02-12T00:16:15;2.55;;;1.17;;
50781;SDS011;36749;37.428;-121.972;2023-02-12T00:18:43;2.70;;;1.40;;
50781;SDS011;36749;37.428;-121.972;2023-02-12T00:21:10;3.22;;;1.02;;
50781;SDS011;36749;37.428;-121.972;2023-02-12T00:23:38;2.88;;;1.50;;
50781;SDS011;36749;37.428;-121.972;2023-02-12T00:26:09;2.30;;;1.08;;
50781;SDS011;36749;37.428;-121.972;2023-02-12T00:28:39;4.90;;;1.33;;
50781;SDS011;36749;37.428;-121.972;2023-02-12T00:33:32;3.90;;;1.55;;
50781;SDS011;36749;37.428;-121.972;2023-02-12T00:35:59;2.58;;;1.40;;
50781;SDS011;36749;37.428;-121.972;2023-02-12T00:38:25;4.70;;;1.50;;
50781;SDS011;36749;37.428;-121.972;2023-02-12T00:40:51;4.40;;;1.30;;
50781;SDS011;36749;37.428;-121.972;2023-02-12T00:43:18;2.60;;;1.40;;
50781;SDS011;36749;37.428;-121.972;2023-02-12T00:45:44;3.20;;;1.10;;
50781;SDS011;36749;37.428;-121.972;2023-02-12T00:48:11;1.85;;;1.27;;
50781;SDS011;36749;37.428;-121.972;2023-02-12T00:50:38;3.78;;;1.48;;
50781;SDS011;36749;37.428;-121.972;2023-02-12T00:53:06;3.08;;;1.77;;
50781;SDS011;36749;37.428;-121.972;2023-02-12T00:55:33;8.60;;;1.77;;
50781;SDS011;36749;37.428;-121.972;2023-02-12T00:57:59;3.13;;;1.55;;
50781;SDS011;36749;37.428;-121.972;2023-02-12T01:00:26;3.25;;;1.73;;
50781;SDS011;36749;37.428;-121.972;2023-02-12T01:02:52;4.80;;;2.05;;
50781;SDS011;36749;37.428;-121.972;2023-02-12T01:05:18;3.22;;;1.60;;
50781;SDS011;36749;37.428;-121.972;2023-02-12T01:07:51;1.88;;;1.15;;
50781;SDS011;36749;37.428;-121.972;2023-02-12T01:10:18;4.50;;;1.65;;
50781;SDS011;36749;37.428;-121.972;2023-02-12T01:12:45;6.63;;;1.55;;
50781;SDS011;36749;37.428;-121.972;2023-02-12T01:15:12;6.00;;;2.28;;
50781;SDS011;36749;37.428;-121.972;2023-02-12T01:17:39;4.18;;;1.75;;
50781;SDS011;36749;37.428;-121.972;2023-02-12T01:20:06;4.00;;;1.27;;
50781;SDS011;36749;37.428;-121.972;2023-02-12T01:22:34;3.88;;;1.55;;
50781;SDS011;36749;37.428;-121.972;2023-02-12T01:25:01;5.45;;;1.73;;
50781;SDS011;36749;37.428;-121.972;2023-02-12T01:27:28;2.88;;;1.70;;
50781;SDS011;36749;37.428;-121.972;2023-02-12T01:29:55;7.35;;;1.83;;
50781;SDS011;36749;37.428;-121.972;2023-02-12T01:32:21;8.13;;;2.17;;
50781;SDS011;36749;37.428;-121.972;2023-02-12T01:34:47;3.72;;;1.85;;
50781;SDS011;36749;37.428;-121.972;2023-02-12T01:37:14;5.20;;;1.67;;
50781;SDS011;36749;37.428;-121.972;2023-02-12T01:39:40;1.35;;;1.23;;
50781;SDS011;36749;37.428;-121.972;2023-02-12T01:42:09;10.02;;;1.98;;
50781;SDS011;36749;37.428;-121.972;2023-02-12T01:44:44;6.23;;;1.63;;
50781;SDS011;36749;37.428;-121.972;2023-02-12T01:47:30;4.85;;;1.73;;
50781;SDS011;36749;37.428;-121.972;2023-02-12T01:49:57;9.80;;;2.08;;
50781;SDS011;36749;37.428;-121.972;2023-02-12T01:52:27;2.90;;;1.60;;
50781;SDS011;36749;37.428;-121.972;2023-02-12T01:54:55;5.00;;;1.63;;
50781;SDS011;36749;37.428;-121.972;2023-02-12T01:57:26;2.95;;;1.50;;
50781;SDS011;36749;37.428;-121.972;2023-02-12T01:59:53;2.22;;;1.25;;
50781;SDS011;36749;37.428;-121.972;2023-02-12T02:02:21;4.78;;;1.92;;
50781;SDS011;36749;37.428;-121.972;2023-02-12T02:04:52;4.45;;;1.52;;
50781;SDS011;36749;37.428;-121.972;2023-02-12T02:07:20;6.25;;;1.75;;
50781;SDS011;36749;37.428;-121.972;2023-02-12T02:09:46;9.98;;;1.85;;
50781;SDS011;36749;37.428;-121.972;2023-02-12T02:12:13;3.33;;;1.60;;
50781;SDS011;36749;37.428;-121.972;2023-02-12T02:14:58;6.45;;;1.98;;
50781;SDS011;36749;37.428;-121.972;2023-02-12T02:26:26;4.50;;;2.08;;
50781;SDS011;36749;37.428;-121.972;2023-02-12T02:34:52;4.63;;;1.60;;
50781;SDS011;36749;37.428;-121.972;2023-02-12T02:37:39;8.30;;;3.55;;
50781;SDS011;36749;37.428;-121.972;2023-02-12T02:40:19;8.65;;;3.28;;
50781;SDS011;36749;37.428;-121.972;2023-02-12T02:43:08;27.00;;;17.60;;
50781;SDS011;36749;37.428;-121.972;2023-02-12T02:45:47;8.43;;;3.75;;
50781;SDS011;36749;37.428;-121.972;2023-02-12T02:48:26;13.15;;;2.95;;
50781;SDS011;36749;37.428;-121.972;2023-02-12T02:50:58;8.70;;;2.10;;
50781;SDS011;36749;37.428;-121.972;2023-02-12T02:53:30;8.65;;;2.10;;
50781;SDS011;36749;37.428;-121.972;2023-02-12T02:56:02;6.53;;;2.33;;
50781;SDS011;36749;37.428;-121.972;2023-02-12T02:58:38;4.30;;;1.85;;
50781;SDS011;36749;37.428;-121.972;2023-02-12T03:01:13;8.18;;;2.83;;
50781;SDS011;36749;37.428;-121.972;2023-02-12T03:04:04;7.47;;;2.88;;
50781;SDS011;36749;37.428;-121.972;2023-02-12T03:09:36;9.65;;;2.70;;
50781;SDS011;36749;37.428;-121.972;2023-02-12T03:12:09;6.47;;;3.05;;
50781;SDS011;36749;37.428;-121.972;2023-02-12T03:14:41;12.70;;;4.60;;
50781;SDS011;36749;37.428;-121.972;2023-02-12T03:19:42;11.88;;;3.60;;
50781;SDS011;36749;37.428;-121.972;2023-02-12T03:22:13;6.80;;;2.92;;
50781;SDS011;36749;37.428;-121.972;2023-02-12T03:24:59;8.10;;;2.10;;
50781;SDS011;36749;37.428;-121.972;2023-02-12T03:28:19;10.63;;;2.50;;
50781;SDS011;36749;37.428;-121.972;2023-02-12T03:30:27;6.63;;;3.38;;
50781;SDS011;36749;37.428;-121.972;2023-02-12T03:33:24;9.88;;;4.28;;
50781;SDS011;36749;37.428;-121.972;2023-02-12T03:36:06;8.75;;;2.95;;
50781;SDS011;36749;37.428;-121.972;2023-02-12T03:38:44;8.40;;;2.40;;
50781;SDS011;36749;37.428;-121.972;2023-02-12T03:41:24;7.05;;;2.28;;
50781;SDS011;36749;37.428;-121.972;2023-02-12T03:49:35;7.80;;;2.22;;
50781;SDS011;36749;37.428;-121.972;2023-02-12T03:52:07;5.97;;;2.20;;
50781;SDS011;36749;37.428;-121.972;2023-02-12T03:54:33;9.07;;;2.67;;
50781;SDS011;36749;37.428;-121.972;2023-02-12T03:57:11;9.18;;;2.40;;
50781;SDS011;36749;37.428;-121.972;2023-02-12T03:59:40;6.72;;;2.17;;
50781;SDS011;36749;37.428;-121.972;2023-02-12T04:02:07;7.57;;;2.10;;
50781;SDS011;36749;37.428;-121.972;2023-02-12T04:04:34;7.00;;;1.98;;
50781;SDS011;36749;37.428;-121.972;2023-02-12T04:07:01;5.82;;;2.00;;
50781;SDS011;36749;37.428;-121.972;2023-02-12T04:09:27;8.27;;;2.30;;
50781;SDS011;36749;37.428;-121.972;2023-02-12T04:20:24;4.72;;;1.95;;
50781;SDS011;36749;37.428;-121.972;2023-02-12T04:33:26;8.20;;;2.63;;
50781;SDS011;36749;37.428;-121.972;2023-02-12T04:38:57;4.72;;;2.10;;
50781;SDS011;36749;37.428;-121.972;2023-02-12T04:41:25;9.50;;;2.17;;
50781;SDS011;36749;37.428;-121.972;2023-02-12T04:43:52;6.05;;;2.53;;
50781;SDS011;36749;37.428;-121.972;2023-02-12T04:46:18;9.45;;;2.33;;
50781;SDS011;36749;37.428;-121.972;2023-02-12T04:48:55;7.15;;;2.35;;
50781;SDS011;36749;37.428;-121.972;2023-02-12T04:51:23;5.18;;;2.25;;
50781;SDS011;36749;37.428;-121.972;2023-02-12T04:53:49;7.55;;;2.55;;
50781;SDS011;36749;37.428;-121.972;2023-02-12T04:56:16;4.32;;;2.00;;
50781;SDS011;36749;37.428;-121.972;2023-02-12T04:58:42;4.40;;;2.30;;
50781;SDS011;36749;37.428;-121.972;2023-02-12T05:01:08;7.53;;;2.88;;
50781;SDS011;36749;37.428;-121.972;2023-02-12T05:03:35;4.75;;;2.20;;
50781;SDS011;36749;37.428;-121.972;2023-02-12T05:06:05;4.88;;;2.15;;
50781;SDS011;36749;37.428;-121.972;2023-02-12T05:08:33;9.30;;;2.28;;
50781;SDS011;36749;37.428;-121.972;2023-02-12T05:11:03;3.85;;;2.50;;
50781;SDS011;36749;37.428;-121.972;2023-02-12T05:13:31;7.68;;;2.50;;
50781;SDS011;36749;37.428;-121.972;2023-02-12T05:15:57;4.82;;;2.25;;
50781;SDS011;36749;37.428;-121.972;2023-02-12T05:18:23;6.35;;;2.28;;
50781;SDS011;36749;37.428;-121.972;2023-02-12T05:20:56;6.05;;;2.70;;
50781;SDS011;36749;37.428;-121.972;2023-02-12T05:23:26;8.25;;;2.53;;
50781;SDS011;36749;37.428;-121.972;2023-02-12T05:25:56;7.10;;;2.38;;
50781;SDS011;36749;37.428;-121.972;2023-02-12T05:28:24;5.00;;;2.20;;
50781;SDS011;36749;37.428;-121.972;2023-02-12T05:30:51;7.80;;;2.55;;
50781;SDS011;36749;37.428;-121.972;2023-02-12T05:33:17;9.32;;;2.20;;
50781;SDS011;36749;37.428;-121.972;2023-02-12T05:35:43;5.03;;;2.22;;
50781;SDS011;36749;37.428;-121.972;2023-02-12T05:38:09;3.30;;;2.25;;
50781;SDS011;36749;37.428;-121.972;2023-02-12T05:40:36;6.47;;;2.30;;
50781;SDS011;36749;37.428;-121.972;2023-02-12T05:43:04;6.78;;;2.47;;
50781;SDS011;36749;37.428;-121.972;2023-02-12T05:45:31;14.98;;;2.53;;
50781;SDS011;36749;37.428;-121.972;2023-02-12T05:47:57;7.72;;;2.42;;
50781;SDS011;36749;37.428;-121.972;2023-02-12T05:50:23;3.38;;;2.08;;
50781;SDS011;36749;37.428;-121.972;2023-02-12T05:52:50;4.05;;;2.45;;
50781;SDS011;36749;37.428;-121.972;2023-02-12T05:55:16;7.88;;;2.92;;
50781;SDS011;36749;37.428;-121.972;2023-02-12T05:57:42;9.40;;;2.20;;
50781;SDS011;36749;37.428;-121.972;2023-02-12T06:00:08;6.00;;;3.22;;
50781;SDS011;36749;37.428;-121.972;2023-02-12T06:02:35;5.40;;;3.08;;
50781;SDS011;36749;37.428;-121.972;2023-02-12T06:05:02;7.53;;;2.97;;
50781;SDS011;36749;37.428;-121.972;2023-02-12T06:07:28;5.88;;;2.95;;
50781;SDS011;36749;37.428;-121.972;2023-02-12T06:09:54;16.90;;;5.60;;
50781;SDS011;36749;37.428;-121.972;2023-02-12T06:12:20;7.90;;;3.53;;
50781;SDS011;36749;37.428;-121.972;2023-02-12T06:14:47;7.70;;;3.38;;
50781;SDS011;36749;37.428;-121.972;2023-02-12T06:17:13;6.80;;;3.20;;
50781;SDS011;36749;37.428;-121.972;2023-02-12T06:19:39;9.10;;;3.50;;
50781;SDS011;36749;37.428;-121.972;2023-02-12T06:22:05;11.27;;;4.13;;
50781;SDS011;36749;37.428;-121.972;2023-02-12T06:24:31;7.55;;;3.22;;
50781;SDS011;36749;37.428;-121.972;2023-02-12T06:26:58;9.75;;;2.97;;
50781;SDS011;36749;37.428;-121.972;2023-02-12T06:29:24;7.35;;;3.42;;
50781;SDS011;36749;37.428;-121.972;2023-02-12T06:31:50;9.25;;;4.05;;
50781;SDS011;36749;37.428;-121.972;2023-02-12T06:34:16;6.95;;;3.50;;
50781;SDS011;36749;37.428;-121.972;2023-02-12T06:36:43;9.13;;;3.85;;
50781;SDS011;36749;37.428;-121.972;2023-02-12T06:39:11;8.55;;;3.67;;
50781;SDS011;36749;37.428;-121.972;2023-02-12T06:41:39;8.77;;;3.45;;
50781;SDS011;36749;37.428;-121.972;2023-02-12T06:44:05;9.00;;;4.15;;
50781;SDS011;36749;37.428;-121.972;2023-02-12T06:46:32;11.43;;;5.32;;
50781;SDS011;36749;37.428;-121.972;2023-02-12T06:48:59;12.90;;;4.70;;
50781;SDS011;36749;37.428;-121.972;2023-02-12T06:51:26;9.45;;;4.50;;
50781;SDS011;36749;37.428;-121.972;2023-02-12T06:53:53;12.88;;;5.25;;
50781;SDS011;36749;37.428;-121.972;2023-02-12T06:56:21;9.15;;;4.65;;
50781;SDS011;36749;37.428;-121.972;2023-02-12T06:58:51;11.15;;;4.57;;
50781;SDS011;36749;37.428;-121.972;2023-02-12T07:01:21;10.55;;;4.32;;
50781;SDS011;36749;37.428;-121.972;2023-02-12T07:03:52;10.43;;;5.20;;
50781;SDS011;36749;37.428;-121.972;2023-02-12T07:06:20;8.50;;;4.75;;
50781;SDS011;36749;37.428;-121.972;2023-02-12T07:08:46;11.98;;;4.72;;
50781;SDS011;36749;37.428;-121.972;2023-02-12T07:11:13;10.40;;;4.97;;
50781;SDS011;36749;37.428;-121.972;2023-02-12T07:13:40;12.55;;;4.45;;
50781;SDS011;36749;37.428;-121.972;2023-02-12T07:16:08;9.82;;;4.57;;
50781;SDS011;36749;37.428;-121.972;2023-02-12T07:18:36;9.25;;;4.28;;
50781;SDS011;36749;37.428;-121.972;2023-02-12T07:21:03;10.60;;;4.97;;
50781;SDS011;36749;37.428;-121.972;2023-02-12T07:23:30;9.80;;;4.47;;
50781;SDS011;36749;37.428;-121.972;2023-02-12T07:26:00;10.57;;;4.85;;
50781;SDS011;36749;37.428;-121.972;2023-02-12T07:28:33;10.40;;;4.55;;
50781;SDS011;36749;37.428;-121.972;2023-02-12T07:31:05;11.40;;;4.65;;
50781;SDS011;36749;37.428;-121.972;2023-02-12T07:33:33;13.85;;;5.07;;
50781;SDS011;36749;37.428;-121.972;2023-02-12T07:35:59;7.20;;;4.40;;
50781;SDS011;36749;37.428;-121.972;2023-02-12T07:38:27;12.73;;;4.90;;
50781;SDS011;36749;37.428;-121.972;2023-02-12T07:40:53;10.73;;;4.60;;
50781;SDS011;36749;37.428;-121.972;2023-02-12T07:43:21;11.32;;;5.05;;
50781;SDS011;36749;37.428;-121.972;2023-02-12T07:45:47;11.82;;;4.68;;
50781;SDS011;36749;37.428;-121.972;2023-02-12T07:48:13;13.57;;;5.00;;
50781;SDS011;36749;37.428;-121.972;2023-02-12T07:50:40;8.68;;;4.43;;
50781;SDS011;36749;37.428;-121.972;2023-02-12T07:53:06;13.20;;;5.20;;
50781;SDS011;36749;37.428;-121.972;2023-02-12T07:55:32;12.23;;;4.85;;
50781;SDS011;36749;37.428;-121.972;2023-02-12T07:57:58;13.23;;;5.85;;
50781;SDS011;36749;37.428;-121.972;2023-02-12T08:00:24;9.43;;;5.15;;
50781;SDS011;36749;37.428;-121.972;2023-02-12T08:02:51;9.45;;;4.95;;
50781;SDS011;36749;37.428;-121.972;2023-02-12T08:05:18;9.10;;;4.60;;
50781;SDS011;36749;37.428;-121.972;2023-02-12T08:07:44;10.30;;;5.10;;
50781;SDS011;36749;37.428;-121.972;2023-02-12T08:10:10;10.75;;;5.35;;
50781;SDS011;36749;37.428;-121.972;2023-02-12T08:12:37;12.18;;;5.70;;
50781;SDS011;36749;37.428;-121.972;2023-02-12T08:15:03;9.20;;;5.47;;
50781;SDS011;36749;37.428;-121.972;2023-02-12T08:17:29;10.68;;;5.35;;
50781;SDS011;36749;37.428;-121.972;2023-02-12T08:19:55;12.43;;;5.63;;
50781;SDS011;36749;37.428;-121.972;2023-02-12T08:22:22;15.98;;;5.50;;
50781;SDS011;36749;37.428;-121.972;2023-02-12T08:24:48;11.85;;;5.13;;
50781;SDS011;36749;37.428;-121.972;2023-02-12T08:27:14;8.82;;;5.25;;
50781;SDS011;36749;37.428;-121.972;2023-02-12T08:29:40;12.57;;;5.47;;
50781;SDS011;36749;37.428;-121.972;2023-02-12T08:32:06;10.73;;;5.25;;
50781;SDS011;36749;37.428;-121.972;2023-02-12T08:34:38;10.48;;;5.18;;
50781;SDS011;36749;37.428;-121.972;2023-02-12T08:37:04;15.82;;;6.57;;
50781;SDS011;36749;37.428;-121.972;2023-02-12T08:39:31;13.65;;;5.57;;
50781;SDS011;36749;37.428;-121.972;2023-02-12T08:41:57;13.43;;;6.20;;
50781;SDS011;36749;37.428;-121.972;2023-02-12T08:44:25;13.40;;;6.50;;
50781;SDS011;36749;37.428;-121.972;2023-02-12T08:46:52;11.90;;;5.63;;
50781;SDS011;36749;37.428;-121.972;2023-02-12T08:49:20;14.90;;;6.45;;
50781;SDS011;36749;37.428;-121.972;2023-02-12T08:51:49;11.25;;;5.82;;
50781;SDS011;36749;37.428;-121.972;2023-02-12T08:54:18;11.40;;;5.25;;
50781;SDS011;36749;37.428;-121.972;2023-02-12T08:56:46;12.60;;;6.00;;
50781;SDS011;36749;37.428;-121.972;2023-02-12T08:59:12;13.40;;;5.75;;
50781;SDS011;36749;37.428;-121.972;2023-02-12T09:01:40;13.50;;;5.80;;
50781;SDS011;36749;37.428;-121.972;2023-02-12T09:04:07;14.70;;;7.88;;
50781;SDS011;36749;37.428;-121.972;2023-02-12T09:06:42;12.32;;;6.13;;
50781;SDS011;36749;37.428;-121.972;2023-02-12T09:09:08;13.55;;;6.65;;
50781;SDS011;36749;37.428;-121.972;2023-02-12T09:11:34;11.45;;;5.75;;
50781;SDS011;36749;37.428;-121.972;2023-02-12T09:14:03;11.02;;;5.40;;
50781;SDS011;36749;37.428;-121.972;2023-02-12T09:16:31;12.55;;;6.15;;
50781;SDS011;36749;37.428;-121.972;2023-02-12T09:18:58;15.45;;;6.50;;
50781;SDS011;36749;37.428;-121.972;2023-02-12T09:21:24;13.00;;;5.70;;
50781;SDS011;36749;37.428;-121.972;2023-02-12T09:23:51;11.80;;;6.60;;
50781;SDS011;36749;37.428;-121.972;2023-02-12T09:26:19;13.85;;;6.45;;
50781;SDS011;36749;37.428;-121.972;2023-02-12T09:28:47;13.00;;;5.55;;
50781;SDS011;36749;37.428;-121.972;2023-02-12T09:31:15;12.10;;;5.00;;
50781;SDS011;36749;37.428;-121.972;2023-02-12T09:33:45;15.43;;;6.10;;
50781;SDS011;36749;37.428;-121.972;2023-02-12T09:36:12;12.50;;;6.10;;
50781;SDS011;36749;37.428;-121.972;2023-02-12T09:38:40;16.10;;;6.18;;
50781;SDS011;36749;37.428;-121.972;2023-02-12T09:46:49;11.18;;;5.32;;
50781;SDS011;36749;37.428;-121.972;2023-02-12T09:49:29;11.90;;;5.60;;
50781;SDS011;36749;37.428;-121.972;2023-02-12T09:52:00;14.48;;;5.70;;
50781;SDS011;36749;37.428;-121.972;2023-02-12T09:54:28;10.98;;;5.85;;
50781;SDS011;36749;37.428;-121.972;2023-02-12T09:57:03;11.07;;;5.90;;
50781;SDS011;36749;37.428;-121.972;2023-02-12T09:59:42;14.18;;;5.78;;
50781;SDS011;36749;37.428;-121.972;2023-02-12T10:02:15;18.27;;;6.25;;
50781;SDS011;36749;37.428;-121.972;2023-02-12T10:04:42;13.68;;;5.90;;
50781;SDS011;36749;37.428;-121.972;2023-02-12T10:12:20;12.43;;;6.13;;
50781;SDS011;36749;37.428;-121.972;2023-02-12T10:14:56;13.18;;;5.95;;
50781;SDS011;36749;37.428;-121.972;2023-02-12T10:17:45;10.73;;;6.13;;
50781;SDS011;36749;37.428;-121.972;2023-02-12T10:20:27;14.77;;;5.72;;
50781;SDS011;36749;37.428;-121.972;2023-02-12T10:28:46;12.60;;;6.30;;
50781;SDS011;36749;37.428;-121.972;2023-02-12T10:31:16;13.90;;;6.57;;
50781;SDS011;36749;37.428;-121.972;2023-02-12T10:33:48;11.55;;;6.70;;
50781;SDS011;36749;37.428;-121.972;2023-02-12T10:36:17;12.10;;;6.25;;
50781;SDS011;36749;37.428;-121.972;2023-02-12T10:42:11;14.27;;;5.43;;
50781;SDS011;36749;37.428;-121.972;2023-02-12T10:44:46;12.85;;;5.30;;
50781;SDS011;36749;37.428;-121.972;2023-02-12T10:47:14;11.13;;;5.75;;
50781;SDS011;36749;37.428;-121.972;2023-02-12T10:49:44;9.05;;;5.10;;
50781;SDS011;36749;37.428;-121.972;2023-02-12T10:55:28;11.15;;;4.90;;
50781;SDS011;36749;37.428;-121.972;2023-02-12T10:57:57;12.65;;;4.10;;
50781;SDS011;36749;37.428;-121.972;2023-02-12T11:00:26;10.50;;;4.18;;
50781;SDS011;36749;37.428;-121.972;2023-02-12T11:03:04;10.35;;;4.10;;
50781;SDS011;36749;37.428;-121.972;2023-02-12T11:05:45;8.60;;;3.65;;
50781;SDS011;36749;37.428;-121.972;2023-02-12T11:08:28;9.40;;;4.22;;
50781;SDS011;36749;37.428;-121.972;2023-02-12T11:11:01;7.03;;;3.50;;
50781;SDS011;36749;37.428;-121.972;2023-02-12T11:13:32;9.93;;;4.05;;
50781;SDS011;36749;37.428;-121.972;2023-02-12T11:15:59;6.45;;;3.50;;
50781;SDS011;36749;37.428;-121.972;2023-02-12T11:18:29;6.20;;;3.60;;
50781;SDS011;36749;37.428;-121.972;2023-02-12T11:21:03;7.60;;;4.03;;
50781;SDS011;36749;37.428;-121.972;2023-02-12T11:26:06;7.50;;;4.20;;
50781;SDS011;36749;37.428;-121.972;2023-02-12T11:31:23;9.50;;;4.20;;
50781;SDS011;36749;37.428;-121.972;2023-02-12T11:34:13;15.07;;;9.63;;
50781;SDS011;36749;37.428;-121.972;2023-02-12T11:36:47;14.27;;;8.43;;
50781;SDS011;36749;37.428;-121.972;2023-02-12T11:39:22;16.08;;;13.23;;
50781;SDS011;36749;37.428;-121.972;2023-02-12T11:41:55;16.35;;;12.20;;
50781;SDS011;36749;37.428;-121.972;2023-02-12T11:44:25;15.20;;;10.88;;
50781;SDS011;36749;37.428;-121.972;2023-02-12T11:47:00;14.98;;;8.43;;
50781;SDS011;36749;37.428;-121.972;2023-02-12T11:49:43;12.07;;;5.38;;
50781;SDS011;36749;37.428;-121.972;2023-02-12T11:52:19;8.15;;;4.78;;
50781;SDS011;36749;37.428;-121.972;2023-02-12T11:54:46;9.23;;;4.70;;
50781;SDS011;36749;37.428;-121.972;2023-02-12T11:58:14;10.75;;;4.68;;
50781;SDS011;36749;37.428;-121.972;2023-02-12T12:03:01;10.23;;;4.38;;
50781;SDS011;36749;37.428;-121.972;2023-02-12T12:05:39;10.95;;;4.80;;
50781;SDS011;36749;37.428;-121.972;2023-02-12T12:11:23;12.85;;;5.45;;
50781;SDS011;36749;37.428;-121.972;2023-02-12T12:22:20;11.23;;;5.07;;
50781;SDS011;36749;37.428;-121.972;2023-02-12T12:27:31;14.18;;;5.25;;
50781;SDS011;36749;37.428;-121.972;2023-02-12T12:33:12;11.57;;;5.55;;
50781;SDS011;36749;37.428;-121.972;2023-02-12T12:38:38;12.43;;;5.10;;
50781;SDS011;36749;37.428;-121.972;2023-02-12T12:43:54;10.70;;;5.00;;
50781;SDS011;36749;37.428;-121.972;2023-02-12T12:47:01;8.82;;;4.53;;
50781;SDS011;36749;37.428;-121.972;2023-02-12T12:55:47;10.63;;;4.57;;
50781;SDS011;36749;37.428;-121.972;2023-02-12T12:58:20;11.38;;;4.65;;
50781;SDS011;36749;37.428;-121.972;2023-02-12T13:14:02;10.90;;;5.25;;
50781;SDS011;36749;37.428;-121.972;2023-02-12T13:16:56;10.75;;;5.35;;
50781;SDS011;36749;37.428;-121.972;2023-02-12T13:24:49;10.68;;;5.32;;
50781;SDS011;36749;37.428;-121.972;2023-02-12T13:27:23;14.20;;;6.90;;
50781;SDS011;36749;37.428;-121.972;2023-02-12T13:29:52;13.15;;;5.50;;
50781;SDS011;36749;37.428;-121.972;2023-02-12T13:32:33;12.50;;;4.70;;
50781;SDS011;36749;37.428;-121.972;2023-02-12T13:35:03;8.75;;;4.25;;
50781;SDS011;36749;37.428;-121.972;2023-02-12T13:37:38;8.10;;;4.07;;
50781;SDS011;36749;37.428;-121.972;2023-02-12T13:48:12;8.88;;;4.25;;
50781;SDS011;36749;37.428;-121.972;2023-02-12T13:50:50;11.07;;;5.55;;
50781;SDS011;36749;37.428;-121.972;2023-02-12T13:58:59;11.30;;;4.85;;
50781;SDS011;36749;37.428;-121.972;2023-02-12T14:01:41;8.55;;;4.07;;
50781;SDS011;36749;37.428;-121.972;2023-02-12T14:07:05;11.18;;;5.75;;
50781;SDS011;36749;37.428;-121.972;2023-02-12T14:09:41;9.27;;;4.32;;
50781;SDS011;36749;37.428;-121.972;2023-02-12T14:12:26;7.93;;;4.32;;
50781;SDS011;36749;37.428;-121.972;2023-02-12T14:14:56;6.55;;;3.80;;
50781;SDS011;36749;37.428;-121.972;2023-02-12T14:20:07;6.72;;;4.28;;
50781;SDS011;36749;37.428;-121.972;2023-02-12T14:28:06;13.70;;;4.95;;
50781;SDS011;36749;37.428;-121.972;2023-02-12T14:30:42;8.73;;;4.15;;
50781;SDS011;36749;37.428;-121.972;2023-02-12T14:33:10;9.30;;;4.10;;
50781;SDS011;36749;37.428;-121.972;2023-02-12T14:35:48;10.52;;;4.53;;
50781;SDS011;36749;37.428;-121.972;2023-02-12T14:40:43;9.30;;;4.18;;
50781;SDS011;36749;37.428;-121.972;2023-02-12T14:43:28;11.93;;;4.55;;
50781;SDS011;36749;37.428;-121.972;2023-02-12T14:48:50;9.63;;;3.90;;
50781;SDS011;36749;37.428;-121.972;2023-02-12T14:51:25;7.20;;;4.30;;
50781;SDS011;36749;37.428;-121.972;2023-02-12T15:00:18;7.78;;;4.18;;
50781;SDS011;36749;37.428;-121.972;2023-02-12T15:03:04;5.13;;;3.80;;
50781;SDS011;36749;37.428;-121.972;2023-02-12T15:08:25;10.80;;;4.80;;
50781;SDS011;36749;37.428;-121.972;2023-02-12T15:16:26;8.75;;;4.35;;
50781;SDS011;36749;37.428;-121.972;2023-02-12T15:21:35;11.57;;;4.60;;
50781;SDS011;36749;37.428;-121.972;2023-02-12T15:24:03;14.80;;;4.72;;
50781;SDS011;36749;37.428;-121.972;2023-02-12T15:26:32;14.55;;;4.50;;
50781;SDS011;36749;37.428;-121.972;2023-02-12T15:29:04;9.00;;;4.40;;
50781;SDS011;36749;37.428;-121.972;2023-02-12T15:31:31;9.77;;;4.30;;
50781;SDS011;36749;37.428;-121.972;2023-02-12T15:33:59;11.60;;;4.40;;
50781;SDS011;36749;37.428;-121.972;2023-02-12T15:36:28;9.88;;;4.40;;
50781;SDS011;36749;37.428;-121.972;2023-02-12T15:39:03;13.55;;;5.43;;
50781;SDS011;36749;37.428;-121.972;2023-02-12T15:44:01;15.00;;;4.82;;
50781;SDS011;36749;37.428;-121.972;2023-02-12T15:46:29;7.95;;;4.25;;
50781;SDS011;36749;37.428;-121.972;2023-02-12T15:48:55;8.32;;;4.32;;
50781;SDS011;36749;37.428;-121.972;2023-02-12T15:54:00;8.25;;;3.95;;
50781;SDS011;36749;37.428;-121.972;2023-02-12T15:56:30;7.97;;;3.95;;
50781;SDS011;36749;37.428;-121.972;2023-02-12T15:58:58;11.40;;;4.90;;
50781;SDS011;36749;37.428;-121.972;2023-02-12T16:01:32;7.60;;;4.22;;
50781;SDS011;36749;37.428;-121.972;2023-02-12T16:04:06;9.23;;;4.50;;
50781;SDS011;36749;37.428;-121.972;2023-02-12T16:06:33;10.85;;;4.65;;
50781;SDS011;36749;37.428;-121.972;2023-02-12T16:09:02;12.23;;;4.30;;
50781;SDS011;36749;37.428;-121.972;2023-02-12T16:11:31;10.60;;;4.47;;
50781;SDS011;36749;37.428;-121.972;2023-02-12T16:13:59;8.40;;;4.38;;
50781;SDS011;36749;37.428;-121.972;2023-02-12T16:16:28;11.38;;;4.70;;
50781;SDS011;36749;37.428;-121.972;2023-02-12T16:21:42;10.30;;;5.15;;
50781;SDS011;36749;37.428;-121.972;2023-02-12T16:24:27;11.50;;;4.80;;
50781;SDS011;36749;37.428;-121.972;2023-02-12T16:27:08;8.27;;;4.35;;
50781;SDS011;36749;37.428;-121.972;2023-02-12T16:29:45;8.52;;;4.63;;
50781;SDS011;36749;37.428;-121.972;2023-02-12T16:32:29;13.00;;;5.28;;
50781;SDS011;36749;37.428;-121.972;2023-02-12T16:42:33;11.65;;;5.07;;
50781;SDS011;36749;37.428;-121.972;2023-02-12T16:45:00;9.00;;;4.93;;
50781;SDS011;36749;37.428;-121.972;2023-02-12T16:47:26;12.07;;;5.50;;
50781;SDS011;36749;37.428;-121.972;2023-02-12T16:49:59;9.13;;;4.72;;
50781;SDS011;36749;37.428;-121.972;2023-02-12T16:52:39;11.18;;;5.63;;
50781;SDS011;36749;37.428;-121.972;2023-02-12T16:55:10;11.55;;;5.22;;
50781;SDS011;36749;37.428;-121.972;2023-02-12T16:57:38;13.43;;;5.88;;
50781;SDS011;36749;37.428;-121.972;2023-02-12T17:00:05;12.88;;;6.03;;
50781;SDS011;36749;37.428;-121.972;2023-02-12T17:02:32;9.98;;;5.20;;
50781;SDS011;36749;37.428;-121.972;2023-02-12T17:05:03;11.60;;;5.38;;
50781;SDS011;36749;37.428;-121.972;2023-02-12T17:07:33;10.43;;;5.43;;
50781;SDS011;36749;37.428;-121.972;2023-02-12T17:10:00;11.35;;;5.20;;
50781;SDS011;36749;37.428;-121.972;2023-02-12T17:12:27;7.93;;;5.13;;
50781;SDS011;36749;37.428;-121.972;2023-02-12T17:14:53;10.32;;;4.85;;
50781;SDS011;36749;37.428;-121.972;2023-02-12T17:17:20;8.60;;;4.43;;
50781;SDS011;36749;37.428;-121.972;2023-02-12T17:19:46;7.72;;;4.35;;
50781;SDS011;36749;37.428;-121.972;2023-02-12T17:22:33;10.90;;;4.70;;
50781;SDS011;36749;37.428;-121.972;2023-02-12T17:25:00;10.95;;;4.80;;
50781;SDS011;36749;37.428;-121.972;2023-02-12T17:27:26;7.72;;;4.30;;
50781;SDS011;36749;37.428;-121.972;2023-02-12T17:29:53;11.07;;;4.80;;
50781;SDS011;36749;37.428;-121.972;2023-02-12T17:32:19;8.95;;;4.55;;
50781;SDS011;36749;37.428;-121.972;2023-02-12T17:34:48;6.45;;;3.92;;